sensor_id;sensor_type;location;lat;lon;timestamp;P1;durP1;ratioP1;P2;durP2;ratioP2
8881;SDS011;4477;48.736;9.176;2022-12-07T00:00:06;15.30;;;13.13;;
8881;SDS011;4477;48.736;9.176;2022-12-07T00:02:33;15.77;;;13.50;;
8881;SDS011;4477;48.736;9.176;2022-12-07T00:05:02;14.53;;;12.80;;
8881;SDS011;4477;48.736;9.176;2022-12-07T00:07:29;16.37;;;12.53;;
8881;SDS011;4477;48.736;9.176;2022-12-07T00:09:56;17.53;;;13.87;;
8881;SDS011;4477;48.736;9.176;2022-12-07T00:12:23;15.30;;;13.07;;
8881;SDS011;4477;48.736;9.176;2022-12-07T00:14:51;15.43;;;13.13;;
8881;SDS011;4477;48.736;9.176;2022-12-07T00:17:18;15.27;;;13.30;;
8881;SDS011;4477;48.736;9.176;2022-12-07T00:19:45;16.03;;;13.67;;
8881;SDS011;4477;48.736;9.176;2022-12-07T00:22:13;15.53;;;13.77;;
8881;SDS011;4477;48.736;9.176;2022-12-07T00:24:40;17.07;;;13.33;;
8881;SDS011;4477;48.736;9.176;2022-12-07T00:27:08;16.63;;;14.33;;
8881;SDS011;4477;48.736;9.176;2022-12-07T00:29:35;16.57;;;12.70;;
8881;SDS011;4477;48.736;9.176;2022-12-07T00:32:03;16.40;;;13.73;;
8881;SDS011;4477;48.736;9.176;2022-12-07T00:34:30;15.40;;;13.40;;
8881;SDS011;4477;48.736;9.176;2022-12-07T00:36:57;15.30;;;13.70;;
8881;SDS011;4477;48.736;9.176;2022-12-07T00:39:25;14.43;;;12.83;;
8881;SDS011;4477;48.736;9.176;2022-12-07T00:41:52;16.93;;;14.00;;
8881;SDS011;4477;48.736;9.176;2022-12-07T00:44:19;17.37;;;14.77;;
8881;SDS011;4477;48.736;9.176;2022-12-07T00:46:47;17.70;;;15.33;;
8881;SDS011;4477;48.736;9.176;2022-12-07T00:49:14;17.40;;;14.50;;
8881;SDS011;4477;48.736;9.176;2022-12-07T00:51:41;16.53;;;14.57;;
8881;SDS011;4477;48.736;9.176;2022-12-07T00:54:08;16.40;;;14.03;;
8881;SDS011;4477;48.736;9.176;2022-12-07T00:56:37;17.67;;;15.77;;
8881;SDS011;4477;48.736;9.176;2022-12-07T00:59:04;18.20;;;15.20;;
8881;SDS011;4477;48.736;9.176;2022-12-07T01:01:32;15.77;;;14.03;;
8881;SDS011;4477;48.736;9.176;2022-12-07T01:03:59;18.63;;;14.93;;
8881;SDS011;4477;48.736;9.176;2022-12-07T01:06:27;17.47;;;15.30;;
8881;SDS011;4477;48.736;9.176;2022-12-07T01:08:54;18.33;;;15.00;;
8881;SDS011;4477;48.736;9.176;2022-12-07T01:11:23;18.70;;;16.43;;
8881;SDS011;4477;48.736;9.176;2022-12-07T01:13:52;17.67;;;15.23;;
8881;SDS011;4477;48.736;9.176;2022-12-07T01:16:19;18.20;;;15.63;;
8881;SDS011;4477;48.736;9.176;2022-12-07T01:18:48;17.87;;;15.57;;
8881;SDS011;4477;48.736;9.176;2022-12-07T01:21:17;18.20;;;15.77;;
8881;SDS011;4477;48.736;9.176;2022-12-07T01:23:45;18.60;;;15.80;;
8881;SDS011;4477;48.736;9.176;2022-12-07T01:26:13;18.40;;;15.57;;
8881;SDS011;4477;48.736;9.176;2022-12-07T01:28:41;19.70;;;15.47;;
8881;SDS011;4477;48.736;9.176;2022-12-07T01:31:10;18.13;;;15.40;;
8881;SDS011;4477;48.736;9.176;2022-12-07T01:33:39;18.07;;;15.73;;
8881;SDS011;4477;48.736;9.176;2022-12-07T01:36:07;18.67;;;16.40;;
8881;SDS011;4477;48.736;9.176;2022-12-07T01:38:35;21.33;;;16.57;;
8881;SDS011;4477;48.736;9.176;2022-12-07T01:41:02;19.23;;;15.60;;
8881;SDS011;4477;48.736;9.176;2022-12-07T01:43:30;18.27;;;15.00;;
8881;SDS011;4477;48.736;9.176;2022-12-07T01:45:57;17.50;;;14.67;;
8881;SDS011;4477;48.736;9.176;2022-12-07T01:48:27;17.73;;;14.87;;
8881;SDS011;4477;48.736;9.176;2022-12-07T01:50:55;19.60;;;16.67;;
8881;SDS011;4477;48.736;9.176;2022-12-07T01:53:24;19.77;;;15.47;;
8881;SDS011;4477;48.736;9.176;2022-12-07T01:55:52;19.83;;;15.37;;
8881;SDS011;4477;48.736;9.176;2022-12-07T01:58:20;19.73;;;16.03;;
8881;SDS011;4477;48.736;9.176;2022-12-07T02:00:47;18.33;;;15.33;;
8881;SDS011;4477;48.736;9.176;2022-12-07T02:03:16;19.17;;;15.37;;
8881;SDS011;4477;48.736;9.176;2022-12-07T02:05:46;22.80;;;15.90;;
8881;SDS011;4477;48.736;9.176;2022-12-07T02:08:14;18.90;;;15.33;;
8881;SDS011;4477;48.736;9.176;2022-12-07T02:10:41;18.50;;;14.97;;
8881;SDS011;4477;48.736;9.176;2022-12-07T02:13:09;19.93;;;16.20;;
8881;SDS011;4477;48.736;9.176;2022-12-07T02:15:44;21.10;;;15.93;;
8881;SDS011;4477;48.736;9.176;2022-12-07T02:18:14;21.37;;;15.73;;
8881;SDS011;4477;48.736;9.176;2022-12-07T02:20:43;18.97;;;15.27;;
8881;SDS011;4477;48.736;9.176;2022-12-07T02:26:08;22.93;;;16.93;;
8881;SDS011;4477;48.736;9.176;2022-12-07T02:28:48;20.77;;;15.77;;
8881;SDS011;4477;48.736;9.176;2022-12-07T02:31:17;19.37;;;16.10;;
8881;SDS011;4477;48.736;9.176;2022-12-07T02:33:46;21.50;;;16.50;;
8881;SDS011;4477;48.736;9.176;2022-12-07T02:36:17;20.30;;;16.37;;
8881;SDS011;4477;48.736;9.176;2022-12-07T02:38:48;24.07;;;16.90;;
8881;SDS011;4477;48.736;9.176;2022-12-07T02:41:17;18.13;;;15.57;;
8881;SDS011;4477;48.736;9.176;2022-12-07T02:43:49;21.87;;;16.30;;
8881;SDS011;4477;48.736;9.176;2022-12-07T02:46:19;20.63;;;15.97;;
8881;SDS011;4477;48.736;9.176;2022-12-07T02:48:47;19.57;;;15.73;;
8881;SDS011;4477;48.736;9.176;2022-12-07T02:51:16;19.80;;;15.83;;
8881;SDS011;4477;48.736;9.176;2022-12-07T02:53:44;23.97;;;17.17;;
8881;SDS011;4477;48.736;9.176;2022-12-07T02:56:12;24.40;;;17.30;;
8881;SDS011;4477;48.736;9.176;2022-12-07T02:58:45;21.57;;;17.40;;
8881;SDS011;4477;48.736;9.176;2022-12-07T03:01:18;22.43;;;17.57;;
8881;SDS011;4477;48.736;9.176;2022-12-07T03:03:52;21.63;;;17.07;;
8881;SDS011;4477;48.736;9.176;2022-12-07T03:06:26;21.00;;;17.10;;
8881;SDS011;4477;48.736;9.176;2022-12-07T03:08:56;20.67;;;15.97;;
8881;SDS011;4477;48.736;9.176;2022-12-07T03:11:25;19.37;;;16.17;;
8881;SDS011;4477;48.736;9.176;2022-12-07T03:13:55;22.43;;;16.70;;
8881;SDS011;4477;48.736;9.176;2022-12-07T03:16:25;22.87;;;17.73;;
8881;SDS011;4477;48.736;9.176;2022-12-07T03:18:53;20.93;;;16.33;;
8881;SDS011;4477;48.736;9.176;2022-12-07T03:21:22;20.97;;;16.93;;
8881;SDS011;4477;48.736;9.176;2022-12-07T03:23:51;24.33;;;17.70;;
8881;SDS011;4477;48.736;9.176;2022-12-07T03:26:19;20.77;;;16.47;;
8881;SDS011;4477;48.736;9.176;2022-12-07T03:28:48;20.57;;;16.33;;
8881;SDS011;4477;48.736;9.176;2022-12-07T03:31:17;23.17;;;17.80;;
8881;SDS011;4477;48.736;9.176;2022-12-07T03:33:49;21.83;;;17.20;;
8881;SDS011;4477;48.736;9.176;2022-12-07T03:36:23;21.40;;;16.37;;
8881;SDS011;4477;48.736;9.176;2022-12-07T03:38:56;21.20;;;17.37;;
8881;SDS011;4477;48.736;9.176;2022-12-07T03:41:31;22.80;;;18.23;;
8881;SDS011;4477;48.736;9.176;2022-12-07T03:44:02;20.60;;;16.93;;
8881;SDS011;4477;48.736;9.176;2022-12-07T03:46:32;22.50;;;17.40;;
8881;SDS011;4477;48.736;9.176;2022-12-07T03:49:07;19.93;;;16.77;;
8881;SDS011;4477;48.736;9.176;2022-12-07T03:51:39;22.47;;;17.47;;
8881;SDS011;4477;48.736;9.176;2022-12-07T03:54:13;22.00;;;17.43;;
8881;SDS011;4477;48.736;9.176;2022-12-07T03:56:46;21.50;;;17.43;;
8881;SDS011;4477;48.736;9.176;2022-12-07T04:04:31;21.77;;;16.87;;
8881;SDS011;4477;48.736;9.176;2022-12-07T04:06:59;21.63;;;16.80;;
8881;SDS011;4477;48.736;9.176;2022-12-07T04:09:26;21.73;;;16.97;;
8881;SDS011;4477;48.736;9.176;2022-12-07T04:11:53;22.33;;;16.70;;
8881;SDS011;4477;48.736;9.176;2022-12-07T04:14:19;20.17;;;15.97;;
8881;SDS011;4477;48.736;9.176;2022-12-07T04:16:46;21.07;;;16.67;;
8881;SDS011;4477;48.736;9.176;2022-12-07T04:19:15;19.37;;;16.33;;
8881;SDS011;4477;48.736;9.176;2022-12-07T04:21:44;21.07;;;16.17;;
8881;SDS011;4477;48.736;9.176;2022-12-07T04:24:12;20.50;;;15.30;;
8881;SDS011;4477;48.736;9.176;2022-12-07T04:26:40;18.70;;;15.60;;
8881;SDS011;4477;48.736;9.176;2022-12-07T04:29:07;20.40;;;15.07;;
8881;SDS011;4477;48.736;9.176;2022-12-07T04:31:34;16.73;;;14.63;;
8881;SDS011;4477;48.736;9.176;2022-12-07T04:34:02;18.37;;;14.23;;
8881;SDS011;4477;48.736;9.176;2022-12-07T04:36:29;17.17;;;13.90;;
8881;SDS011;4477;48.736;9.176;2022-12-07T04:38:58;20.10;;;13.63;;
8881;SDS011;4477;48.736;9.176;2022-12-07T04:41:25;16.60;;;13.53;;
8881;SDS011;4477;48.736;9.176;2022-12-07T04:43:53;15.83;;;13.00;;
8881;SDS011;4477;48.736;9.176;2022-12-07T04:46:21;14.20;;;12.03;;
8881;SDS011;4477;48.736;9.176;2022-12-07T04:48:50;13.47;;;11.00;;
8881;SDS011;4477;48.736;9.176;2022-12-07T04:51:18;10.43;;;8.87;;
8881;SDS011;4477;48.736;9.176;2022-12-07T04:53:46;10.40;;;8.33;;
8881;SDS011;4477;48.736;9.176;2022-12-07T04:56:15;10.37;;;8.23;;
8881;SDS011;4477;48.736;9.176;2022-12-07T04:58:43;8.33;;;7.17;;
8881;SDS011;4477;48.736;9.176;2022-12-07T05:01:11;8.87;;;7.50;;
8881;SDS011;4477;48.736;9.176;2022-12-07T05:03:38;7.87;;;7.00;;
8881;SDS011;4477;48.736;9.176;2022-12-07T05:06:05;9.90;;;8.60;;
8881;SDS011;4477;48.736;9.176;2022-12-07T05:08:33;13.50;;;10.00;;
8881;SDS011;4477;48.736;9.176;2022-12-07T05:11:00;8.57;;;7.67;;
8881;SDS011;4477;48.736;9.176;2022-12-07T05:13:29;7.80;;;6.70;;
8881;SDS011;4477;48.736;9.176;2022-12-07T05:15:56;5.83;;;5.23;;
8881;SDS011;4477;48.736;9.176;2022-12-07T05:18:23;6.57;;;5.87;;
8881;SDS011;4477;48.736;9.176;2022-12-07T05:20:50;5.63;;;5.00;;
8881;SDS011;4477;48.736;9.176;2022-12-07T05:23:17;5.00;;;4.50;;
8881;SDS011;4477;48.736;9.176;2022-12-07T05:25:44;5.60;;;5.10;;
8881;SDS011;4477;48.736;9.176;2022-12-07T05:28:12;5.30;;;4.80;;
8881;SDS011;4477;48.736;9.176;2022-12-07T05:30:40;5.63;;;4.83;;
8881;SDS011;4477;48.736;9.176;2022-12-07T05:33:07;5.77;;;5.17;;
8881;SDS011;4477;48.736;9.176;2022-12-07T05:35:34;6.60;;;6.00;;
8881;SDS011;4477;48.736;9.176;2022-12-07T05:38:02;8.57;;;6.10;;
8881;SDS011;4477;48.736;9.176;2022-12-07T05:40:29;7.47;;;6.70;;
8881;SDS011;4477;48.736;9.176;2022-12-07T05:42:56;7.73;;;6.93;;
8881;SDS011;4477;48.736;9.176;2022-12-07T05:45:22;8.33;;;7.23;;
8881;SDS011;4477;48.736;9.176;2022-12-07T05:47:50;7.70;;;6.77;;
8881;SDS011;4477;48.736;9.176;2022-12-07T05:50:17;9.30;;;8.10;;
8881;SDS011;4477;48.736;9.176;2022-12-07T05:52:44;11.23;;;8.90;;
8881;SDS011;4477;48.736;9.176;2022-12-07T05:55:10;11.40;;;9.33;;
8881;SDS011;4477;48.736;9.176;2022-12-07T05:57:37;11.33;;;8.80;;
8881;SDS011;4477;48.736;9.176;2022-12-07T06:00:04;11.57;;;9.33;;
8881;SDS011;4477;48.736;9.176;2022-12-07T06:02:31;11.17;;;9.53;;
8881;SDS011;4477;48.736;9.176;2022-12-07T06:04:59;13.20;;;9.97;;
8881;SDS011;4477;48.736;9.176;2022-12-07T06:07:26;12.33;;;10.70;;
8881;SDS011;4477;48.736;9.176;2022-12-07T06:09:52;17.53;;;11.37;;
8881;SDS011;4477;48.736;9.176;2022-12-07T06:12:19;13.73;;;10.60;;
8881;SDS011;4477;48.736;9.176;2022-12-07T06:15:00;15.37;;;11.67;;
8881;SDS011;4477;48.736;9.176;2022-12-07T06:17:27;15.80;;;11.60;;
8881;SDS011;4477;48.736;9.176;2022-12-07T06:19:54;14.63;;;11.83;;
8881;SDS011;4477;48.736;9.176;2022-12-07T06:22:22;16.13;;;12.40;;
8881;SDS011;4477;48.736;9.176;2022-12-07T06:24:49;15.43;;;11.83;;
8881;SDS011;4477;48.736;9.176;2022-12-07T06:27:15;16.33;;;12.33;;
8881;SDS011;4477;48.736;9.176;2022-12-07T06:29:42;14.77;;;12.50;;
8881;SDS011;4477;48.736;9.176;2022-12-07T06:32:09;16.37;;;12.73;;
8881;SDS011;4477;48.736;9.176;2022-12-07T06:34:37;16.57;;;12.23;;
8881;SDS011;4477;48.736;9.176;2022-12-07T06:37:03;14.90;;;11.73;;
8881;SDS011;4477;48.736;9.176;2022-12-07T06:39:32;16.13;;;12.17;;
8881;SDS011;4477;48.736;9.176;2022-12-07T06:41:58;14.67;;;11.50;;
8881;SDS011;4477;48.736;9.176;2022-12-07T06:44:25;13.40;;;11.00;;
8881;SDS011;4477;48.736;9.176;2022-12-07T06:46:52;12.97;;;10.57;;
8881;SDS011;4477;48.736;9.176;2022-12-07T06:49:19;13.70;;;10.60;;
8881;SDS011;4477;48.736;9.176;2022-12-07T06:51:46;14.27;;;10.77;;
8881;SDS011;4477;48.736;9.176;2022-12-07T06:54:14;12.63;;;10.60;;
8881;SDS011;4477;48.736;9.176;2022-12-07T06:56:44;12.07;;;10.27;;
8881;SDS011;4477;48.736;9.176;2022-12-07T06:59:11;14.17;;;10.17;;
8881;SDS011;4477;48.736;9.176;2022-12-07T07:01:38;13.17;;;9.83;;
8881;SDS011;4477;48.736;9.176;2022-12-07T07:04:05;12.50;;;10.50;;
8881;SDS011;4477;48.736;9.176;2022-12-07T07:06:32;13.97;;;10.53;;
8881;SDS011;4477;48.736;9.176;2022-12-07T07:08:59;11.47;;;8.83;;
8881;SDS011;4477;48.736;9.176;2022-12-07T07:11:25;12.17;;;9.53;;
8881;SDS011;4477;48.736;9.176;2022-12-07T07:13:54;13.67;;;9.43;;
8881;SDS011;4477;48.736;9.176;2022-12-07T07:16:22;10.87;;;9.27;;
8881;SDS011;4477;48.736;9.176;2022-12-07T07:18:50;13.50;;;9.67;;
8881;SDS011;4477;48.736;9.176;2022-12-07T07:21:16;12.67;;;10.00;;
8881;SDS011;4477;48.736;9.176;2022-12-07T07:23:43;10.70;;;9.53;;
8881;SDS011;4477;48.736;9.176;2022-12-07T07:26:10;12.83;;;10.50;;
8881;SDS011;4477;48.736;9.176;2022-12-07T07:28:37;12.93;;;10.50;;
8881;SDS011;4477;48.736;9.176;2022-12-07T07:31:05;13.37;;;9.80;;
8881;SDS011;4477;48.736;9.176;2022-12-07T07:33:32;11.53;;;9.53;;
8881;SDS011;4477;48.736;9.176;2022-12-07T07:35:59;31.27;;;25.77;;
8881;SDS011;4477;48.736;9.176;2022-12-07T07:38:26;12.73;;;10.53;;
8881;SDS011;4477;48.736;9.176;2022-12-07T07:40:53;12.30;;;9.60;;
8881;SDS011;4477;48.736;9.176;2022-12-07T07:43:20;10.93;;;9.47;;
8881;SDS011;4477;48.736;9.176;2022-12-07T07:45:46;12.10;;;10.13;;
8881;SDS011;4477;48.736;9.176;2022-12-07T07:48:14;12.47;;;10.00;;
8881;SDS011;4477;48.736;9.176;2022-12-07T07:50:41;15.60;;;10.00;;
8881;SDS011;4477;48.736;9.176;2022-12-07T07:53:08;12.70;;;9.97;;
8881;SDS011;4477;48.736;9.176;2022-12-07T07:55:35;13.30;;;9.77;;
8881;SDS011;4477;48.736;9.176;2022-12-07T07:58:02;13.83;;;11.07;;
8881;SDS011;4477;48.736;9.176;2022-12-07T08:00:29;16.23;;;10.73;;
8881;SDS011;4477;48.736;9.176;2022-12-07T08:02:56;16.13;;;10.57;;
8881;SDS011;4477;48.736;9.176;2022-12-07T08:05:24;15.83;;;10.83;;
8881;SDS011;4477;48.736;9.176;2022-12-07T08:07:51;13.23;;;11.23;;
8881;SDS011;4477;48.736;9.176;2022-12-07T08:10:17;12.10;;;10.23;;
8881;SDS011;4477;48.736;9.176;2022-12-07T08:12:44;12.33;;;9.53;;
8881;SDS011;4477;48.736;9.176;2022-12-07T08:15:29;12.40;;;10.13;;
8881;SDS011;4477;48.736;9.176;2022-12-07T08:17:56;14.60;;;10.47;;
8881;SDS011;4477;48.736;9.176;2022-12-07T08:20:25;13.67;;;10.53;;
8881;SDS011;4477;48.736;9.176;2022-12-07T08:22:52;12.00;;;9.80;;
8881;SDS011;4477;48.736;9.176;2022-12-07T08:25:18;13.00;;;9.60;;
8881;SDS011;4477;48.736;9.176;2022-12-07T08:27:47;20.97;;;11.33;;
8881;SDS011;4477;48.736;9.176;2022-12-07T08:30:14;16.20;;;10.10;;
8881;SDS011;4477;48.736;9.176;2022-12-07T08:32:41;14.03;;;10.67;;
8881;SDS011;4477;48.736;9.176;2022-12-07T08:35:08;15.77;;;11.53;;
8881;SDS011;4477;48.736;9.176;2022-12-07T08:37:36;16.40;;;10.83;;
8881;SDS011;4477;48.736;9.176;2022-12-07T08:40:04;17.43;;;11.00;;
8881;SDS011;4477;48.736;9.176;2022-12-07T08:42:32;20.97;;;9.77;;
8881;SDS011;4477;48.736;9.176;2022-12-07T08:45:05;15.40;;;10.10;;
8881;SDS011;4477;48.736;9.176;2022-12-07T08:47:33;19.13;;;10.00;;
8881;SDS011;4477;48.736;9.176;2022-12-07T08:50:01;18.90;;;10.00;;
8881;SDS011;4477;48.736;9.176;2022-12-07T08:52:29;16.23;;;9.70;;
8881;SDS011;4477;48.736;9.176;2022-12-07T08:54:58;18.37;;;9.97;;
8881;SDS011;4477;48.736;9.176;2022-12-07T08:57:26;12.03;;;9.50;;
8881;SDS011;4477;48.736;9.176;2022-12-07T08:59:54;17.57;;;9.77;;
8881;SDS011;4477;48.736;9.176;2022-12-07T09:02:21;15.17;;;10.00;;
8881;SDS011;4477;48.736;9.176;2022-12-07T09:04:48;14.20;;;8.83;;
8881;SDS011;4477;48.736;9.176;2022-12-07T09:07:16;10.20;;;8.93;;
8881;SDS011;4477;48.736;9.176;2022-12-07T09:09:43;11.83;;;8.40;;
8881;SDS011;4477;48.736;9.176;2022-12-07T09:12:11;26.40;;;9.63;;
8881;SDS011;4477;48.736;9.176;2022-12-07T09:14:38;16.13;;;8.43;;
8881;SDS011;4477;48.736;9.176;2022-12-07T09:17:05;9.27;;;7.33;;
8881;SDS011;4477;48.736;9.176;2022-12-07T09:19:33;8.30;;;7.10;;
8881;SDS011;4477;48.736;9.176;2022-12-07T09:22:00;8.93;;;7.37;;
8881;SDS011;4477;48.736;9.176;2022-12-07T09:24:27;10.13;;;7.50;;
8881;SDS011;4477;48.736;9.176;2022-12-07T09:26:54;9.80;;;7.33;;
8881;SDS011;4477;48.736;9.176;2022-12-07T09:29:22;11.03;;;7.40;;
8881;SDS011;4477;48.736;9.176;2022-12-07T09:31:49;11.13;;;6.27;;
8881;SDS011;4477;48.736;9.176;2022-12-07T09:34:16;8.97;;;7.00;;
8881;SDS011;4477;48.736;9.176;2022-12-07T09:36:43;10.57;;;6.80;;
8881;SDS011;4477;48.736;9.176;2022-12-07T09:39:10;7.37;;;6.07;;
8881;SDS011;4477;48.736;9.176;2022-12-07T09:41:37;9.53;;;7.13;;
8881;SDS011;4477;48.736;9.176;2022-12-07T09:44:07;17.57;;;14.37;;
8881;SDS011;4477;48.736;9.176;2022-12-07T09:46:39;10.77;;;9.33;;
8881;SDS011;4477;48.736;9.176;2022-12-07T09:49:09;13.93;;;8.40;;
8881;SDS011;4477;48.736;9.176;2022-12-07T09:51:40;10.20;;;7.70;;
8881;SDS011;4477;48.736;9.176;2022-12-07T09:54:08;10.60;;;7.23;;
8881;SDS011;4477;48.736;9.176;2022-12-07T09:56:38;8.73;;;6.77;;
8881;SDS011;4477;48.736;9.176;2022-12-07T09:59:05;6.93;;;5.40;;
8881;SDS011;4477;48.736;9.176;2022-12-07T10:01:32;7.37;;;5.70;;
8881;SDS011;4477;48.736;9.176;2022-12-07T10:04:05;6.67;;;5.50;;
8881;SDS011;4477;48.736;9.176;2022-12-07T10:06:37;6.53;;;5.20;;
8881;SDS011;4477;48.736;9.176;2022-12-07T10:09:08;7.20;;;5.20;;
8881;SDS011;4477;48.736;9.176;2022-12-07T10:14:23;6.60;;;5.70;;
8881;SDS011;4477;48.736;9.176;2022-12-07T10:16:54;7.20;;;5.37;;
8881;SDS011;4477;48.736;9.176;2022-12-07T10:19:25;8.23;;;6.00;;
8881;SDS011;4477;48.736;9.176;2022-12-07T10:22:00;8.60;;;5.50;;
8881;SDS011;4477;48.736;9.176;2022-12-07T10:24:29;7.07;;;5.37;;
8881;SDS011;4477;48.736;9.176;2022-12-07T10:26:56;8.27;;;5.20;;
8881;SDS011;4477;48.736;9.176;2022-12-07T10:29:24;7.60;;;5.63;;
8881;SDS011;4477;48.736;9.176;2022-12-07T10:31:57;6.67;;;4.83;;
8881;SDS011;4477;48.736;9.176;2022-12-07T10:34:27;7.60;;;5.43;;
8881;SDS011;4477;48.736;9.176;2022-12-07T10:37:06;7.37;;;5.37;;
8881;SDS011;4477;48.736;9.176;2022-12-07T10:39:41;9.97;;;4.83;;
8881;SDS011;4477;48.736;9.176;2022-12-07T10:42:15;5.50;;;4.87;;
8881;SDS011;4477;48.736;9.176;2022-12-07T10:44:44;5.83;;;5.00;;
8881;SDS011;4477;48.736;9.176;2022-12-07T10:47:18;5.40;;;4.90;;
8881;SDS011;4477;48.736;9.176;2022-12-07T10:53:09;4.37;;;3.97;;
8881;SDS011;4477;48.736;9.176;2022-12-07T10:58:47;6.10;;;4.40;;
8881;SDS011;4477;48.736;9.176;2022-12-07T11:01:27;5.80;;;4.80;;
8881;SDS011;4477;48.736;9.176;2022-12-07T11:04:10;4.60;;;4.20;;
8881;SDS011;4477;48.736;9.176;2022-12-07T11:06:53;6.13;;;5.03;;
8881;SDS011;4477;48.736;9.176;2022-12-07T11:09:37;5.57;;;4.43;;
8881;SDS011;4477;48.736;9.176;2022-12-07T11:12:20;6.73;;;4.60;;
8881;SDS011;4477;48.736;9.176;2022-12-07T11:14:58;6.53;;;4.33;;
8881;SDS011;4477;48.736;9.176;2022-12-07T11:17:32;7.03;;;5.10;;
8881;SDS011;4477;48.736;9.176;2022-12-07T11:20:12;6.60;;;4.90;;
8881;SDS011;4477;48.736;9.176;2022-12-07T11:22:51;5.97;;;5.07;;
8881;SDS011;4477;48.736;9.176;2022-12-07T11:25:27;6.67;;;4.87;;
8881;SDS011;4477;48.736;9.176;2022-12-07T11:28:03;8.30;;;5.00;;
8881;SDS011;4477;48.736;9.176;2022-12-07T11:30:46;5.63;;;4.93;;
8881;SDS011;4477;48.736;9.176;2022-12-07T11:33:18;7.07;;;4.73;;
8881;SDS011;4477;48.736;9.176;2022-12-07T11:35:54;9.00;;;5.47;;
8881;SDS011;4477;48.736;9.176;2022-12-07T11:38:32;7.63;;;6.00;;
8881;SDS011;4477;48.736;9.176;2022-12-07T11:41:04;8.60;;;4.70;;
8881;SDS011;4477;48.736;9.176;2022-12-07T11:43:41;7.37;;;5.23;;
8881;SDS011;4477;48.736;9.176;2022-12-07T11:46:18;4.80;;;4.30;;
8881;SDS011;4477;48.736;9.176;2022-12-07T11:48:50;33.00;;;9.13;;
8881;SDS011;4477;48.736;9.176;2022-12-07T11:51:21;11.13;;;5.70;;
8881;SDS011;4477;48.736;9.176;2022-12-07T11:53:52;8.50;;;5.70;;
8881;SDS011;4477;48.736;9.176;2022-12-07T11:56:23;18.47;;;11.10;;
8881;SDS011;4477;48.736;9.176;2022-12-07T11:58:53;9.97;;;7.17;;
8881;SDS011;4477;48.736;9.176;2022-12-07T12:01:33;7.87;;;6.40;;
8881;SDS011;4477;48.736;9.176;2022-12-07T12:04:13;6.10;;;5.50;;
8881;SDS011;4477;48.736;9.176;2022-12-07T12:06:49;6.77;;;5.20;;
8881;SDS011;4477;48.736;9.176;2022-12-07T12:09:20;7.83;;;5.57;;
8881;SDS011;4477;48.736;9.176;2022-12-07T12:12:06;7.17;;;5.30;;
8881;SDS011;4477;48.736;9.176;2022-12-07T12:14:48;7.53;;;5.53;;
8881;SDS011;4477;48.736;9.176;2022-12-07T12:17:32;7.60;;;6.90;;
8881;SDS011;4477;48.736;9.176;2022-12-07T12:20:20;7.23;;;6.63;;
8881;SDS011;4477;48.736;9.176;2022-12-07T12:22:50;5.40;;;4.90;;
8881;SDS011;4477;48.736;9.176;2022-12-07T12:25:24;4.97;;;3.67;;
8881;SDS011;4477;48.736;9.176;2022-12-07T12:27:55;5.57;;;4.03;;
8881;SDS011;4477;48.736;9.176;2022-12-07T12:30:26;4.00;;;3.60;;
8881;SDS011;4477;48.736;9.176;2022-12-07T12:33:05;4.10;;;3.70;;
8881;SDS011;4477;48.736;9.176;2022-12-07T12:35:39;4.77;;;3.80;;
8881;SDS011;4477;48.736;9.176;2022-12-07T12:38:26;3.30;;;2.70;;
8881;SDS011;4477;48.736;9.176;2022-12-07T12:40:57;4.97;;;3.37;;
8881;SDS011;4477;48.736;9.176;2022-12-07T12:55:14;6.67;;;5.97;;
8881;SDS011;4477;48.736;9.176;2022-12-07T12:57:47;7.30;;;6.00;;
8881;SDS011;4477;48.736;9.176;2022-12-07T13:04:14;5.60;;;5.10;;
8881;SDS011;4477;48.736;9.176;2022-12-07T13:06:51;6.50;;;5.70;;
8881;SDS011;4477;48.736;9.176;2022-12-07T13:09:20;5.80;;;5.20;;
8881;SDS011;4477;48.736;9.176;2022-12-07T13:11:50;5.90;;;5.37;;
8881;SDS011;4477;48.736;9.176;2022-12-07T13:14:51;6.00;;;4.37;;
8881;SDS011;4477;48.736;9.176;2022-12-07T13:20:45;6.00;;;5.40;;
8881;SDS011;4477;48.736;9.176;2022-12-07T13:23:20;5.20;;;4.60;;
8881;SDS011;4477;48.736;9.176;2022-12-07T13:26:09;4.90;;;4.40;;
8881;SDS011;4477;48.736;9.176;2022-12-07T13:28:41;4.97;;;4.47;;
8881;SDS011;4477;48.736;9.176;2022-12-07T13:31:12;5.00;;;4.50;;
8881;SDS011;4477;48.736;9.176;2022-12-07T13:33:45;6.67;;;5.10;;
8881;SDS011;4477;48.736;9.176;2022-12-07T13:36:18;5.10;;;4.47;;
8881;SDS011;4477;48.736;9.176;2022-12-07T13:38:48;3.90;;;3.60;;
8881;SDS011;4477;48.736;9.176;2022-12-07T13:41:23;5.53;;;4.40;;
8881;SDS011;4477;48.736;9.176;2022-12-07T13:43:52;4.73;;;3.40;;
8881;SDS011;4477;48.736;9.176;2022-12-07T13:46:27;3.77;;;3.37;;
8881;SDS011;4477;48.736;9.176;2022-12-07T13:49:00;4.37;;;3.70;;
8881;SDS011;4477;48.736;9.176;2022-12-07T13:51:27;4.03;;;3.67;;
8881;SDS011;4477;48.736;9.176;2022-12-07T13:53:55;3.93;;;3.40;;
8881;SDS011;4477;48.736;9.176;2022-12-07T13:56:27;3.40;;;3.10;;
8881;SDS011;4477;48.736;9.176;2022-12-07T13:59:01;3.30;;;3.00;;
8881;SDS011;4477;48.736;9.176;2022-12-07T14:01:31;3.47;;;3.17;;
8881;SDS011;4477;48.736;9.176;2022-12-07T14:06:53;4.13;;;3.30;;
8881;SDS011;4477;48.736;9.176;2022-12-07T14:09:21;3.43;;;3.13;;
8881;SDS011;4477;48.736;9.176;2022-12-07T14:11:49;3.70;;;3.40;;
8881;SDS011;4477;48.736;9.176;2022-12-07T14:14:18;4.20;;;3.80;;
8881;SDS011;4477;48.736;9.176;2022-12-07T14:16:56;3.80;;;3.50;;
8881;SDS011;4477;48.736;9.176;2022-12-07T14:19:42;4.10;;;3.67;;
8881;SDS011;4477;48.736;9.176;2022-12-07T14:22:20;4.73;;;3.97;;
8881;SDS011;4477;48.736;9.176;2022-12-07T14:24:50;4.50;;;4.00;;
8881;SDS011;4477;48.736;9.176;2022-12-07T14:27:18;5.00;;;4.20;;
8881;SDS011;4477;48.736;9.176;2022-12-07T14:29:45;4.70;;;4.20;;
8881;SDS011;4477;48.736;9.176;2022-12-07T14:32:19;4.53;;;4.13;;
8881;SDS011;4477;48.736;9.176;2022-12-07T14:34:56;5.17;;;4.67;;
8881;SDS011;4477;48.736;9.176;2022-12-07T14:37:24;5.40;;;4.90;;
8881;SDS011;4477;48.736;9.176;2022-12-07T14:39:52;4.80;;;4.27;;
8881;SDS011;4477;48.736;9.176;2022-12-07T14:42:19;4.73;;;3.73;;
8881;SDS011;4477;48.736;9.176;2022-12-07T14:44:47;4.17;;;3.77;;
8881;SDS011;4477;48.736;9.176;2022-12-07T14:47:13;4.73;;;4.20;;
8881;SDS011;4477;48.736;9.176;2022-12-07T14:49:42;5.57;;;4.00;;
8881;SDS011;4477;48.736;9.176;2022-12-07T14:52:11;4.90;;;4.23;;
8881;SDS011;4477;48.736;9.176;2022-12-07T14:54:41;5.73;;;5.10;;
8881;SDS011;4477;48.736;9.176;2022-12-07T14:57:09;5.93;;;5.33;;
8881;SDS011;4477;48.736;9.176;2022-12-07T14:59:37;5.73;;;4.80;;
8881;SDS011;4477;48.736;9.176;2022-12-07T15:02:04;6.00;;;5.23;;
8881;SDS011;4477;48.736;9.176;2022-12-07T15:04:31;7.10;;;6.33;;
8881;SDS011;4477;48.736;9.176;2022-12-07T15:07:00;7.30;;;5.60;;
8881;SDS011;4477;48.736;9.176;2022-12-07T15:09:29;7.53;;;5.80;;
8881;SDS011;4477;48.736;9.176;2022-12-07T15:11:56;6.43;;;5.83;;
8881;SDS011;4477;48.736;9.176;2022-12-07T15:14:23;8.23;;;6.77;;
8881;SDS011;4477;48.736;9.176;2022-12-07T15:16:50;7.03;;;6.33;;
8881;SDS011;4477;48.736;9.176;2022-12-07T15:19:17;8.17;;;6.50;;
8881;SDS011;4477;48.736;9.176;2022-12-07T15:21:47;7.03;;;5.90;;
8881;SDS011;4477;48.736;9.176;2022-12-07T15:24:16;8.13;;;6.03;;
8881;SDS011;4477;48.736;9.176;2022-12-07T15:26:43;16.87;;;11.27;;
8881;SDS011;4477;48.736;9.176;2022-12-07T15:29:10;11.47;;;8.90;;
8881;SDS011;4477;48.736;9.176;2022-12-07T15:31:37;9.03;;;7.13;;
8881;SDS011;4477;48.736;9.176;2022-12-07T15:34:04;7.93;;;7.13;;
8881;SDS011;4477;48.736;9.176;2022-12-07T15:36:31;7.37;;;6.57;;
8881;SDS011;4477;48.736;9.176;2022-12-07T15:38:59;7.20;;;6.10;;
8881;SDS011;4477;48.736;9.176;2022-12-07T15:41:28;7.07;;;6.33;;
8881;SDS011;4477;48.736;9.176;2022-12-07T15:43:55;7.83;;;6.83;;
8881;SDS011;4477;48.736;9.176;2022-12-07T15:46:40;8.57;;;6.97;;
8881;SDS011;4477;48.736;9.176;2022-12-07T15:49:08;7.53;;;6.70;;
8881;SDS011;4477;48.736;9.176;2022-12-07T15:51:35;7.37;;;6.33;;
8881;SDS011;4477;48.736;9.176;2022-12-07T15:54:02;8.37;;;6.40;;